Broadus, Montana
Current Conditions -  °F | °C
As of 5:53 AM on Sunday 23 Nov 2014 (Local Time) from KMLS Reporting Station
Clear Clear  
Wind Chill: 24°   Ceiling: Unl
Heat Index: 36°   Visibility: 10mi
Dew Point: 26°   Wind: 25mph
Humidity: 67%   Direction: 290°WNW
Pressure: 29.68"   Gusts: 33mph
Location:  45.44°N, 105.41°W
Report Text: KMLS 231253Z AUTO 29022G29KT 10SM CLR 02/M03 A2968 RMK AO2 PK WND 29031/1159 SLP059 T00221033
Loading
Personal Weather Stations






























Interactive Weather Map New forecast layout! Learn more

10-Day Weather Forecast

Advertisements
Track Severe Weather on mobile